Time;durP1;ratioP1;P1;durP2;ratioP2;P2;SDS_P1;SDS_P2;PMS_P1;PMS_P2;Temp;Humidity;BMP_temperature;BMP_pressure;BME280_temperature;BME280_humidity;BME280_pressure;Samples;Min_cycle;Max_cycle;Signal;HPM_P1;HPM_P2
2023/11/22 00:00:43;;;;;;;3.70;3.40;;;;;;;6.54;100.00;96034.03;5019909;28;20025;-66
2023/11/22 00:03:09;;;;;;;3.92;3.63;;;;;;;6.54;100.00;96031.41;5025247;28;20037;-66
2023/11/22 00:05:34;;;;;;;7.03;3.42;;;;;;;6.42;100.00;96033.13;5025440;28;20110;-66
2023/11/22 00:08:00;;;;;;;3.90;3.60;;;;;;;6.48;100.00;96036.25;5032375;28;20060;-66
2023/11/22 00:10:25;;;;;;;7.53;3.60;;;;;;;6.54;100.00;96034.03;5031790;28;20460;-66
2023/11/22 00:12:50;;;;;;;4.97;4.50;;;;;;;6.43;100.00;96028.72;5023721;28;20030;-66
2023/11/22 00:15:18;;;;;;;4.57;4.22;;;;;;;6.47;100.00;96037.19;5021097;28;20044;-66
2023/11/22 00:17:47;;;;;;;3.20;3.00;;;;;;;6.52;100.00;96035.94;5024124;28;20034;-66
2023/11/22 00:20:12;;;;;;;3.70;3.40;;;;;;;6.65;100.00;96035.03;5025259;28;20565;-66
2023/11/22 00:22:38;;;;;;;3.55;3.35;;;;;;;6.63;100.00;96040.41;5026470;28;20072;-66
2023/11/22 00:25:04;;;;;;;3.25;3.05;;;;;;;6.59;100.00;96038.91;5017428;28;20026;-66
2023/11/22 00:27:31;;;;;;;4.28;3.47;;;;;;;6.64;100.00;96038.59;5020124;28;20029;-66
2023/11/22 00:29:57;;;;;;;3.33;3.03;;;;;;;6.66;100.00;96042.78;5028132;28;20021;-66
2023/11/22 00:32:23;;;;;;;3.22;3.03;;;;;;;6.72;100.00;96033.66;5021239;28;20044;-67
2023/11/22 00:34:48;;;;;;;4.57;4.28;;;;;;;6.76;100.00;96027.28;5020781;28;20030;-66
2023/11/22 00:37:15;;;;;;;5.97;4.40;;;;;;;6.71;100.00;96039.81;5024682;28;20064;-66
2023/11/22 00:39:41;;;;;;;5.13;4.63;;;;;;;6.69;100.00;96039.09;5032764;28;20022;-66
2023/11/22 00:42:07;;;;;;;4.30;3.90;;;;;;;6.81;100.00;96030.38;5018889;28;20121;-66
2023/11/22 00:44:32;;;;;;;4.93;4.15;;;;;;;6.70;100.00;96027.69;5024096;28;20025;-66
2023/11/22 00:46:58;;;;;;;8.75;5.65;;;;;;;6.71;100.00;96024.97;5030860;28;20065;-66
2023/11/22 00:49:23;;;;;;;4.53;4.10;;;;;;;6.57;100.00;96028.56;5025572;28;20087;-66
2023/11/22 00:51:50;;;;;;;4.68;4.28;;;;;;;6.58;100.00;96032.88;5022511;28;20552;-65
2023/11/22 00:54:16;;;;;;;5.80;5.20;;;;;;;6.63;100.00;96037.78;5022696;28;20093;-66
2023/11/22 00:56:42;;;;;;;5.40;4.90;;;;;;;6.67;100.00;96027.91;5021324;28;20491;-66
2023/11/22 00:59:07;;;;;;;5.53;5.13;;;;;;;6.58;100.00;96027.63;5023905;28;20026;-66
2023/11/22 01:01:32;;;;;;;3.85;3.65;;;;;;;6.73;100.00;96020.47;5028588;28;20044;-66
2023/11/22 01:03:58;;;;;;;3.28;3.08;;;;;;;6.65;100.00;96035.88;5025174;28;20449;-66
2023/11/22 01:06:24;;;;;;;3.95;3.20;;;;;;;6.54;100.00;96038.41;5024183;28;20026;-66
2023/11/22 01:08:50;;;;;;;3.25;3.05;;;;;;;6.66;100.00;96039.31;5023352;28;20029;-66
2023/11/22 01:11:16;;;;;;;3.50;3.20;;;;;;;6.58;100.00;96032.88;5023288;28;20508;-66
2023/11/22 01:13:42;;;;;;;3.47;3.28;;;;;;;6.58;100.00;96039.88;5024775;28;20018;-66
2023/11/22 01:16:11;;;;;;;3.80;3.30;;;;;;;6.52;100.00;96041.16;5015618;28;20031;-66
2023/11/22 01:18:36;;;;;;;3.20;3.00;;;;;;;6.60;100.00;96043.19;5023130;28;20053;-67
2023/11/22 01:21:03;;;;;;;4.07;3.00;;;;;;;6.51;100.00;96041.25;5030127;28;20040;-67
2023/11/22 01:23:30;;;;;;;2.83;2.63;;;;;;;6.58;100.00;96047.72;5026729;28;20487;-67
2023/11/22 01:25:55;;;;;;;3.90;3.70;;;;;;;6.58;100.00;96050.31;5024497;28;20036;-66
2023/11/22 01:28:20;;;;;;;3.28;3.17;;;;;;;6.66;100.00;96047.16;5018554;28;20029;-66
2023/11/22 01:30:46;;;;;;;3.50;3.30;;;;;;;6.58;100.00;96045.94;5025228;28;20583;-67
2023/11/22 01:33:12;;;;;;;3.53;3.30;;;;;;;6.53;100.00;96061.13;5023449;28;20010;-67
2023/11/22 01:35:38;;;;;;;2.88;2.67;;;;;;;6.54;100.00;96056.72;5026215;28;20048;-66
2023/11/22 01:38:04;;;;;;;3.42;3.22;;;;;;;6.49;100.00;96057.03;5019444;28;20030;-66
2023/11/22 01:40:30;;;;;;;3.40;3.20;;;;;;;6.49;100.00;96066.69;5028043;28;20034;-67
2023/11/22 01:42:56;;;;;;;3.55;3.35;;;;;;;6.67;100.00;96059.31;5026469;28;20030;-66
2023/11/22 01:45:22;;;;;;;3.10;2.90;;;;;;;6.67;100.00;96056.69;5020256;28;20435;-66
2023/11/22 01:47:47;;;;;;;2.70;2.60;;;;;;;6.56;100.00;96055.69;5026700;28;20037;-67
2023/11/22 01:50:14;;;;;;;3.63;3.42;;;;;;;6.68;100.00;96063.59;5027876;28;20034;-67
2023/11/22 01:52:41;;;;;;;3.28;3.15;;;;;;;6.53;100.00;96066.38;5018572;28;20018;-67
2023/11/22 01:55:08;;;;;;;3.33;3.13;;;;;;;6.56;100.00;96073.16;5026310;28;20790;-67
2023/11/22 01:57:34;;;;;;;4.07;3.83;;;;;;;6.54;100.00;96070.66;5020983;28;20562;-66
2023/11/22 02:00:14;;;;;;;3.42;3.22;;;;;;;6.65;100.00;96069.06;5020892;28;20049;-66
2023/11/22 02:02:39;;;;;;;3.60;3.40;;;;;;;6.58;100.00;96066.88;5021128;28;20022;-67
2023/11/22 02:05:04;;;;;;;3.88;3.67;;;;;;;6.56;100.00;96063.53;5017919;28;20053;-66
2023/11/22 02:07:31;;;;;;;3.55;3.35;;;;;;;6.76;100.00;96058.69;5022595;28;20026;-66
2023/11/22 02:09:57;;;;;;;3.03;2.92;;;;;;;6.61;100.00;96065.81;5015894;28;20038;-67
2023/11/22 02:12:23;;;;;;;3.35;2.95;;;;;;;6.68;100.00;96055.75;5023307;28;20027;-67
2023/11/22 02:14:49;;;;;;;3.30;3.10;;;;;;;6.63;100.00;96048.25;5025948;28;20067;-66
2023/11/22 02:17:16;;;;;;;3.00;2.90;;;;;;;6.55;100.00;96061.00;5022898;28;20139;-66
2023/11/22 02:19:42;;;;;;;6.55;5.85;;;;;;;6.54;100.00;96065.44;5026833;28;20566;-67
2023/11/22 02:22:08;;;;;;;3.58;3.28;;;;;;;6.54;100.00;96060.19;5024334;28;20017;-66
2023/11/22 02:24:34;;;;;;;3.53;3.33;;;;;;;6.55;100.00;96071.47;5019946;28;20018;-67
2023/11/22 02:27:00;;;;;;;3.30;3.10;;;;;;;6.52;100.00;96069.94;5020998;28;20029;-66
2023/11/22 02:29:25;;;;;;;3.42;3.22;;;;;;;6.61;100.00;96075.44;5025981;28;20033;-66
2023/11/22 02:31:50;;;;;;;3.78;3.47;;;;;;;6.69;100.00;96073.97;5020851;28;20087;-67
2023/11/22 02:34:16;;;;;;;4.40;4.10;;;;;;;6.72;100.00;96072.91;5018833;28;20032;-67
2023/11/22 02:36:44;;;;;;;4.88;4.47;;;;;;;6.79;100.00;96079.38;5025807;28;20021;-66
2023/11/22 02:39:10;;;;;;;3.78;3.58;;;;;;;6.65;100.00;96077.75;5016220;28;20030;-67
2023/11/22 02:41:36;;;;;;;3.72;3.53;;;;;;;6.53;100.00;96076.84;5015891;28;20033;-66
2023/11/22 02:44:01;;;;;;;3.20;3.00;;;;;;;6.55;100.00;96077.56;5029107;28;20033;-67
2023/11/22 02:46:26;;;;;;;3.70;3.50;;;;;;;6.52;100.00;96076.94;5019358;28;20018;-66
2023/11/22 02:48:54;;;;;;;3.55;3.35;;;;;;;6.59;100.00;96086.84;5017071;28;20025;-66
2023/11/22 02:51:21;;;;;;;4.00;3.80;;;;;;;6.58;100.00;96079.09;5015324;28;20101;-66
2023/11/22 02:53:48;;;;;;;3.90;3.60;;;;;;;6.54;100.00;96075.88;5025013;28;20064;-66
2023/11/22 02:56:14;;;;;;;5.85;5.30;;;;;;;6.47;100.00;96085.09;5021291;28;20022;-66
2023/11/22 02:58:40;;;;;;;3.40;3.20;;;;;;;6.55;100.00;96088.03;5026936;28;20013;-66
2023/11/22 03:01:07;;;;;;;3.72;3.42;;;;;;;6.55;100.00;96088.03;5022211;28;20021;-67
2023/11/22 03:03:33;;;;;;;3.45;3.25;;;;;;;6.59;100.00;96089.47;5018958;28;20025;-67
2023/11/22 03:05:58;;;;;;;3.72;3.50;;;;;;;6.65;100.00;96077.75;5024473;28;20033;-66
2023/11/22 03:08:24;;;;;;;3.90;3.60;;;;;;;6.50;100.00;96077.03;5023450;28;20021;-66
2023/11/22 03:10:50;;;;;;;4.03;3.63;;;;;;;6.52;100.00;96084.78;5021696;28;20101;-66
2023/11/22 03:13:16;;;;;;;3.60;3.40;;;;;;;6.47;100.00;96085.09;5030351;28;20027;-66
2023/11/22 03:15:42;;;;;;;3.28;3.08;;;;;;;6.50;100.00;96073.59;5024226;28;20021;-66
2023/11/22 03:18:07;;;;;;;3.75;3.28;;;;;;;6.47;100.00;96065.97;5031168;28;20046;-67
2023/11/22 03:20:33;;;;;;;3.40;3.25;;;;;;;6.44;100.00;96067.00;5020803;28;20406;-67
2023/11/22 03:22:58;;;;;;;3.50;3.30;;;;;;;6.48;100.00;96073.69;5033317;28;20017;-67
2023/11/22 03:25:24;;;;;;;4.05;3.80;;;;;;;6.44;100.00;96075.69;5020852;28;20045;-66
2023/11/22 03:27:49;;;;;;;3.58;3.28;;;;;;;6.47;100.00;96071.19;5022130;28;20080;-66
2023/11/22 03:30:15;;;;;;;3.70;3.50;;;;;;;6.54;100.00;96082.88;5015075;28;20021;-66
2023/11/22 03:32:41;;;;;;;4.43;4.03;;;;;;;6.43;100.00;96075.78;5022106;28;20076;-66
2023/11/22 03:35:07;;;;;;;4.45;4.05;;;;;;;6.51;100.00;96078.69;5017622;28;20034;-66
2023/11/22 03:37:33;;;;;;;3.78;3.58;;;;;;;6.48;100.00;96073.69;5024767;28;20033;-67
2023/11/22 03:39:59;;;;;;;3.35;3.15;;;;;;;6.35;100.00;96075.50;5030605;28;20021;-67
2023/11/22 03:42:26;;;;;;;3.30;3.10;;;;;;;6.28;100.00;96082.91;5033291;28;20145;-67
2023/11/22 03:44:52;;;;;;;13.48;7.63;;;;;;;6.22;100.00;96081.56;5034122;28;20140;-66
2023/11/22 03:47:17;;;;;;;16.23;10.68;;;;;;;6.19;100.00;96084.38;5032341;28;20060;-67
2023/11/22 03:49:42;;;;;;;6.70;4.72;;;;;;;6.20;100.00;96093.09;5018358;28;20113;-67
2023/11/22 03:52:09;;;;;;;5.70;4.30;;;;;;;6.16;100.00;96082.81;5028543;28;20490;-67
2023/11/22 03:54:35;;;;;;;4.97;4.30;;;;;;;6.31;100.00;96085.31;5020532;28;20106;-66
2023/11/22 03:57:00;;;;;;;6.57;4.82;;;;;;;6.16;100.00;96079.38;5027477;28;20037;-66
2023/11/22 03:59:26;;;;;;;4.90;4.50;;;;;;;6.22;100.00;96076.31;5032707;28;20029;-67
2023/11/22 04:01:51;;;;;;;3.85;3.60;;;;;;;6.27;100.00;96084.69;5018157;28;20506;-66
2023/11/22 04:04:17;;;;;;;4.20;3.83;;;;;;;6.32;100.00;96088.78;5018831;28;20030;-67
2023/11/22 04:06:42;;;;;;;6.00;5.50;;;;;;;6.32;100.00;96087.00;5024245;28;20569;-66
2023/11/22 04:09:08;;;;;;;4.30;3.97;;;;;;;6.30;100.00;96083.66;5034998;28;20087;-66
2023/11/22 04:11:34;;;;;;;3.78;3.47;;;;;;;6.34;100.00;96079.88;5017039;28;20041;-66
2023/11/22 04:14:00;;;;;;;4.57;4.22;;;;;;;6.34;100.00;96092.13;5017219;28;20022;-66
2023/11/22 04:16:25;;;;;;;3.38;3.17;;;;;;;6.47;100.00;96090.31;5032193;28;20470;-67
2023/11/22 04:18:51;;;;;;;3.65;3.50;;;;;;;6.53;100.00;96084.69;5027384;28;20058;-66
2023/11/22 04:21:16;;;;;;;5.30;3.85;;;;;;;6.47;100.00;96077.25;5021051;28;20026;-67
2023/11/22 04:23:42;;;;;;;3.65;3.35;;;;;;;6.63;100.00;96089.25;5018227;28;20073;-66
2023/11/22 04:26:07;;;;;;;2.90;2.70;;;;;;;6.49;100.00;96088.44;5027375;28;20048;-67
2023/11/22 04:28:34;;;;;;;6.95;4.93;;;;;;;6.45;100.00;96092.22;5023590;28;20042;-66
2023/11/22 04:31:00;;;;;;;9.18;6.65;;;;;;;6.38;100.00;96090.97;5021705;28;20110;-67
2023/11/22 04:33:27;;;;;;;3.15;2.95;;;;;;;6.33;100.00;96096.50;5017665;28;20049;-66
2023/11/22 04:35:53;;;;;;;2.72;2.63;;;;;;;6.49;100.00;96103.31;5021647;28;20022;-66
2023/11/22 04:38:19;;;;;;;3.40;3.20;;;;;;;6.39;100.00;96097.88;5022315;28;20068;-66
2023/11/22 04:40:45;;;;;;;3.15;2.95;;;;;;;6.34;100.00;96099.97;5018254;28;20048;-66
2023/11/22 04:43:11;;;;;;;3.25;2.95;;;;;;;6.22;100.00;96118.16;5017185;28;20513;-66
2023/11/22 04:45:36;;;;;;;7.43;5.38;;;;;;;6.10;100.00;96113.78;5019346;28;20030;-66
2023/11/22 04:48:03;;;;;;;3.65;3.35;;;;;;;6.11;100.00;96125.91;5017719;28;20036;-66
2023/11/22 04:50:29;;;;;;;4.30;3.80;;;;;;;6.08;100.00;96137.41;5027553;28;20096;-66
2023/11/22 04:52:54;;;;;;;4.00;3.70;;;;;;;6.04;100.00;96127.25;5020066;28;20056;-66
2023/11/22 04:55:20;;;;;;;3.50;3.20;;;;;;;6.10;100.00;96121.63;5029923;28;20027;-66
2023/11/22 04:57:46;;;;;;;3.75;3.55;;;;;;;6.23;100.00;96132.91;5035526;28;20129;-67
2023/11/22 05:00:12;;;;;;;8.60;5.00;;;;;;;6.14;100.00;96123.09;5019907;28;20033;-66
2023/11/22 05:02:37;;;;;;;4.03;3.45;;;;;;;6.10;100.00;96125.06;5023554;28;20022;-67
2023/11/22 05:05:03;;;;;;;5.63;3.67;;;;;;;6.06;100.00;96122.75;5018755;28;20030;-66
2023/11/22 05:07:29;;;;;;;5.40;4.90;;;;;;;6.07;100.00;96129.66;5031584;28;20017;-67
2023/11/22 05:09:55;;;;;;;3.95;3.65;;;;;;;6.04;100.00;96130.72;5017975;28;20026;-66
2023/11/22 05:12:20;;;;;;;4.28;3.58;;;;;;;6.04;100.00;96132.47;5025102;28;20156;-67
2023/11/22 05:14:46;;;;;;;4.00;3.78;;;;;;;6.04;100.00;96132.47;5024741;28;20025;-66
2023/11/22 05:17:12;;;;;;;3.70;3.40;;;;;;;5.98;100.00;96126.69;5024759;28;20117;-66
2023/11/22 05:19:37;;;;;;;4.50;4.10;;;;;;;5.99;100.00;96128.38;5027616;28;20042;-66
2023/11/22 05:22:03;;;;;;;3.88;3.58;;;;;;;6.00;100.00;96130.03;5028565;28;20036;-67
2023/11/22 05:24:28;;;;;;;4.95;3.72;;;;;;;5.95;100.00;96133.88;5037691;28;20108;-67
2023/11/22 05:26:54;;;;;;;4.30;3.95;;;;;;;5.93;100.00;96144.47;5030231;28;20069;-67
2023/11/22 05:29:19;;;;;;;4.07;3.65;;;;;;;5.90;100.00;96136.84;5029751;28;20021;-66
2023/11/22 05:31:45;;;;;;;6.28;3.22;;;;;;;5.82;100.00;96137.34;5024103;28;20451;-66
2023/11/22 05:34:10;;;;;;;6.97;5.20;;;;;;;5.78;100.00;96143.72;5022998;28;20792;-66
2023/11/22 05:36:35;;;;;;;5.72;4.05;;;;;;;5.79;100.00;96165.44;5030231;28;20375;-66
2023/11/22 05:39:03;;;;;;;4.53;4.07;;;;;;;5.83;100.00;96172.13;5016335;28;20036;-67
2023/11/22 05:41:29;;;;;;;4.93;3.47;;;;;;;5.79;100.00;96173.28;5029180;28;20044;-67
2023/11/22 05:43:54;;;;;;;3.78;3.50;;;;;;;5.82;100.00;96180.91;5016566;28;20402;-67
2023/11/22 05:46:24;;;;;;;3.45;3.25;;;;;;;5.91;100.00;96177.72;5028259;28;20033;-66
2023/11/22 05:48:53;;;;;;;3.70;3.50;;;;;;;6.24;100.00;96170.38;5028216;28;20471;-66
2023/11/22 05:51:19;;;;;;;4.40;4.10;;;;;;;6.18;100.00;96170.75;5029232;28;20026;-66
2023/11/22 05:53:44;;;;;;;3.97;3.70;;;;;;;6.13;100.00;96171.91;5019008;28;20052;-66
2023/11/22 05:56:10;;;;;;;4.63;4.32;;;;;;;6.14;100.00;96178.81;5026636;28;20041;-66
2023/11/22 05:58:38;;;;;;;6.20;3.42;;;;;;;6.20;100.00;96188.03;5020213;28;20033;-66
2023/11/22 06:01:07;;;;;;;4.75;4.45;;;;;;;6.08;100.00;96183.59;5029291;28;20022;-66
2023/11/22 06:03:34;;;;;;;3.83;3.63;;;;;;;6.30;100.00;96183.03;5026861;28;20183;-66
2023/11/22 06:05:59;;;;;;;5.50;5.10;;;;;;;6.06;100.00;96180.25;5039185;28;20513;-66
2023/11/22 06:08:25;;;;;;;5.25;4.30;;;;;;;6.18;100.00;96189.06;5014506;28;20026;-66
2023/11/22 06:10:51;;;;;;;4.78;4.40;;;;;;;6.16;100.00;96186.56;5027272;28;20125;-66
2023/11/22 06:13:17;;;;;;;4.18;3.72;;;;;;;6.11;100.00;96192.09;5027916;28;20526;-67
2023/11/22 06:15:42;;;;;;;4.88;4.10;;;;;;;6.10;100.00;96197.44;5020287;28;20053;-66
2023/11/22 06:18:08;;;;;;;5.32;5.03;;;;;;;6.03;100.00;96202.22;5018926;28;20068;-66
2023/11/22 06:20:33;;;;;;;5.50;4.10;;;;;;;6.02;100.00;96195.31;5018272;28;20022;-66
2023/11/22 06:22:59;;;;;;;4.82;4.50;;;;;;;6.04;100.00;96189.97;5026402;28;20446;-66
2023/11/22 06:25:24;;;;;;;4.75;4.45;;;;;;;6.05;100.00;96205.56;5028646;28;20021;-67
2023/11/22 06:27:50;;;;;;;5.00;4.60;;;;;;;5.96;100.00;96212.22;5004300;28;20025;-66
2023/11/22 06:30:15;;;;;;;4.60;4.30;;;;;;;5.94;100.00;96213.25;5033274;28;20036;-67
2023/11/22 06:32:42;;;;;;;5.03;4.72;;;;;;;5.91;100.00;96203.84;5023555;28;20057;-66
2023/11/22 06:35:09;;;;;;;6.43;6.03;;;;;;;5.97;100.00;96203.44;5023308;28;20025;-65
2023/11/22 06:37:35;;;;;;;4.32;4.10;;;;;;;5.93;100.00;96215.03;5021662;28;20029;-66
2023/11/22 06:40:00;;;;;;;5.10;4.78;;;;;;;5.91;100.00;96218.66;5026763;28;20030;-66
2023/11/22 06:42:26;;;;;;;4.80;4.50;;;;;;;5.89;100.00;96213.56;5025754;28;20025;-65
2023/11/22 06:44:53;;;;;;;5.40;4.75;;;;;;;5.95;100.00;96213.16;5028481;28;20160;-66
2023/11/22 06:47:22;;;;;;;5.00;4.70;;;;;;;6.05;100.00;96215.19;5027143;28;20034;-66
2023/11/22 06:49:47;;;;;;;4.10;3.85;;;;;;;6.11;100.00;96206.97;5019139;28;20025;-67
2023/11/22 06:52:12;;;;;;;4.32;3.92;;;;;;;6.02;100.00;96198.75;5018999;28;20026;-66
2023/11/22 06:54:38;;;;;;;3.55;3.25;;;;;;;6.16;100.00;96200.47;5017736;28;20026;-67
2023/11/22 06:57:03;;;;;;;4.50;4.30;;;;;;;6.24;100.00;96186.88;5021691;28;20033;-66
2023/11/22 06:59:29;;;;;;;5.05;4.55;;;;;;;6.15;100.00;96201.41;5013753;28;20037;-65
2023/11/22 07:01:55;;;;;;;4.60;4.30;;;;;;;6.06;100.00;96204.63;5025303;28;20483;-65
2023/11/22 07:04:22;;;;;;;4.60;4.20;;;;;;;5.97;100.00;96213.88;5031163;28;20462;-65
2023/11/22 07:06:48;;;;;;;3.95;3.70;;;;;;;6.00;100.00;96224.13;5019427;28;20501;-66
2023/11/22 07:09:14;;;;;;;5.65;5.18;;;;;;;6.05;100.00;96228.25;5021325;28;20084;-65
2023/11/22 07:11:40;;;;;;;4.60;4.20;;;;;;;6.30;100.00;96228.31;5023777;28;20025;-67
2023/11/22 07:14:05;;;;;;;5.57;5.13;;;;;;;6.14;100.00;96223.25;5023870;28;20646;-67
2023/11/22 07:16:33;;;;;;;4.75;4.40;;;;;;;6.10;100.00;96239.25;5024516;28;20024;-66
2023/11/22 07:19:00;;;;;;;4.55;4.13;;;;;;;6.05;100.00;96230.88;5025016;28;20422;-67
2023/11/22 07:21:25;;;;;;;4.85;4.45;;;;;;;6.19;100.00;96233.41;5022869;28;20029;-65
2023/11/22 07:23:50;;;;;;;4.82;4.43;;;;;;;6.26;100.00;96224.22;5025615;28;20538;-65
2023/11/22 07:26:16;;;;;;;4.68;4.28;;;;;;;6.30;100.00;96220.47;5025139;28;20025;-65
2023/11/22 07:28:42;;;;;;;4.97;4.20;;;;;;;6.26;100.00;96221.59;5021515;28;20053;-65
2023/11/22 07:31:09;;;;;;;5.80;5.40;;;;;;;6.26;100.00;96219.00;5027364;28;20033;-66
2023/11/22 07:33:34;;;;;;;5.10;4.53;;;;;;;6.27;100.00;96233.72;5026540;28;20571;-65
2023/11/22 07:36:00;;;;;;;4.93;4.53;;;;;;;6.34;100.00;96231.56;5025641;28;20026;-64
2023/11/22 07:38:25;;;;;;;4.47;4.07;;;;;;;6.44;100.00;96232.63;5029106;28;20028;-64
2023/11/22 07:40:51;;;;;;;4.30;4.00;;;;;;;6.36;100.00;96221.81;5014531;28;20068;-65
2023/11/22 07:43:17;;;;;;;4.35;4.05;;;;;;;6.34;100.00;96233.34;5019105;28;20550;-65
2023/11/22 07:45:43;;;;;;;5.28;4.35;;;;;;;6.28;100.00;96235.41;5023196;28;20013;-65
2023/11/22 07:48:11;;;;;;;5.00;4.63;;;;;;;6.43;100.00;96240.56;5019045;28;20117;-65
2023/11/22 07:50:39;;;;;;;3.80;3.53;;;;;;;6.47;100.00;96244.66;5027062;28;20092;-64
2023/11/22 07:53:04;;;;;;;5.10;4.70;;;;;;;6.54;100.00;96251.16;5028564;28;20547;-65
2023/11/22 07:55:30;;;;;;;5.55;5.20;;;;;;;6.48;100.00;96228.00;5018848;28;20022;-64
2023/11/22 07:57:56;;;;;;;4.78;4.38;;;;;;;6.37;100.00;96246.22;5024589;28;20075;-65
2023/11/22 08:00:22;;;;;;;5.20;4.80;;;;;;;6.45;100.00;96257.00;5021727;28;20044;-65
2023/11/22 08:02:49;;;;;;;4.65;4.25;;;;;;;6.47;100.00;96262.97;5032379;28;20026;-65
2023/11/22 08:05:15;;;;;;;5.63;5.05;;;;;;;6.46;100.00;96258.66;5017558;28;20629;-65
2023/11/22 08:07:45;;;;;;;5.00;4.60;;;;;;;6.48;100.00;96261.19;5027844;28;20029;-64
2023/11/22 08:10:20;;;;;;;5.30;4.93;;;;;;;6.43;100.00;96267.56;5022983;28;20105;-65
2023/11/22 08:12:49;;;;;;;4.30;4.00;;;;;;;6.47;100.00;96268.19;5020311;28;20029;-65
2023/11/22 08:15:16;;;;;;;5.10;4.80;;;;;;;6.52;100.00;96271.38;5027652;28;20267;-65
2023/11/22 08:17:43;;;;;;;5.05;4.53;;;;;;;6.62;100.00;96275.97;5017310;28;20064;-65
2023/11/22 08:20:16;;;;;;;5.30;4.85;;;;;;;6.39;100.00;96273.94;5025991;28;20040;-65
2023/11/22 08:22:42;;;;;;;4.47;4.05;;;;;;;6.45;100.00;96280.53;5030315;28;20030;-65
2023/11/22 08:25:08;;;;;;;5.03;4.65;;;;;;;6.39;100.00;96291.41;5020133;28;20026;-65
2023/11/22 08:27:34;;;;;;;5.00;4.53;;;;;;;6.48;100.00;96306.50;5030723;28;20504;-65
2023/11/22 08:30:04;;;;;;;5.20;4.80;;;;;;;6.31;100.00;96320.69;5031867;28;20241;-65
2023/11/22 08:32:31;;;;;;;5.00;4.53;;;;;;;6.21;100.00;96323.06;5035336;28;20882;-65
2023/11/22 08:34:56;;;;;;;5.10;4.60;;;;;;;6.09;100.00;96316.03;5029768;28;20559;-65
2023/11/22 08:37:22;;;;;;;4.30;3.95;;;;;;;6.16;100.00;96319.91;5026335;28;20026;-65
2023/11/22 08:39:48;;;;;;;4.60;4.20;;;;;;;6.30;100.00;96313.78;5021762;28;20070;-65
2023/11/22 08:42:14;;;;;;;4.35;3.97;;;;;;;6.26;100.00;96315.75;5020191;28;20032;-65
2023/11/22 08:44:39;;;;;;;4.35;3.95;;;;;;;6.23;100.00;96313.34;5021139;28;20589;-65
2023/11/22 08:47:05;;;;;;;5.00;4.60;;;;;;;6.41;100.00;96315.69;5022082;28;20117;-65
2023/11/22 08:49:30;;;;;;;5.13;4.70;;;;;;;6.38;100.00;96326.34;5033222;28;20544;-65
2023/11/22 08:51:59;;;;;;;4.72;4.35;;;;;;;6.43;100.00;96314.66;5031080;28;20029;-65
2023/11/22 08:54:24;;;;;;;4.97;4.03;;;;;;;6.47;100.00;96319.69;5001500;28;20044;-65
2023/11/22 08:56:50;;;;;;;4.93;4.53;;;;;;;6.52;100.00;96318.44;5015351;28;20030;-65
2023/11/22 08:59:16;;;;;;;6.43;5.22;;;;;;;6.56;100.00;96309.44;5022600;28;20025;-65
2023/11/22 09:01:45;;;;;;;4.88;4.47;;;;;;;6.54;100.00;96295.63;5017038;28;20120;-64
2023/11/22 09:04:11;;;;;;;5.38;4.90;;;;;;;6.66;100.00;96298.38;5025753;28;20029;-65
2023/11/22 09:06:36;;;;;;;6.68;6.07;;;;;;;6.55;100.00;96297.31;5021545;28;20029;-64
2023/11/22 09:09:02;;;;;;;4.82;4.53;;;;;;;6.55;100.00;96297.31;5018185;28;20028;-64
2023/11/22 09:11:28;;;;;;;5.40;4.53;;;;;;;6.67;100.00;96297.41;5019900;28;20056;-64
2023/11/22 09:13:56;;;;;;;4.65;4.25;;;;;;;6.73;100.00;96303.09;5033981;28;20112;-64
2023/11/22 09:16:24;;;;;;;4.38;4.00;;;;;;;6.72;100.00;96300.56;5025906;28;20493;-64
2023/11/22 09:18:50;;;;;;;5.30;4.80;;;;;;;6.71;100.00;96306.72;5024817;28;20089;-64
2023/11/22 09:21:16;;;;;;;3.90;3.60;;;;;;;6.81;100.00;96305.19;5043399;28;20049;-64
2023/11/22 09:23:42;;;;;;;4.57;4.15;;;;;;;6.84;100.00;96302.38;5027483;28;20025;-64
2023/11/22 09:26:08;;;;;;;7.28;6.47;;;;;;;6.80;100.00;96305.28;5039069;28;20057;-64
2023/11/22 09:28:33;;;;;;;5.28;4.88;;;;;;;6.88;100.00;96306.44;5018686;28;20030;-64
2023/11/22 09:31:01;;;;;;;5.03;4.53;;;;;;;6.92;100.00;96311.47;5015847;28;20025;-65
2023/11/22 09:33:26;;;;;;;10.27;6.72;;;;;;;7.00;100.00;96306.56;5027303;28;20057;-64
2023/11/22 09:35:52;;;;;;;10.20;6.97;;;;;;;7.00;100.00;96307.38;5030819;28;20100;-65
2023/11/22 09:38:17;;;;;;;26.33;16.27;;;;;;;7.02;100.00;96315.16;5029425;28;20113;-64
2023/11/22 09:40:45;;;;;;;25.05;15.07;;;;;;;7.04;100.00;96308.03;5020674;28;20120;-64
2023/11/22 09:43:12;;;;;;;23.55;16.60;;;;;;;7.06;100.00;96305.28;5023399;28;20059;-64
2023/11/22 09:45:38;;;;;;;25.00;17.70;;;;;;;7.13;100.00;96298.72;5022866;28;20021;-64
2023/11/22 09:48:15;;;;;;;28.77;15.55;;;;;;;7.15;100.00;96284.53;5025999;28;20018;-64
2023/11/22 09:51:17;;;;;;;38.53;25.17;;;;;;;7.26;100.00;96283.81;5019967;28;20044;-65
2023/11/22 09:53:42;;;;;;;19.25;12.50;;;;;;;7.39;100.00;96283.78;5018055;28;20479;-65
2023/11/22 09:56:09;;;;;;;16.00;11.50;;;;;;;7.52;100.00;96281.16;5023236;28;20141;-65
2023/11/22 09:58:39;;;;;;;34.55;18.40;;;;;;;7.58;100.00;96278.09;5020691;28;20048;-64
2023/11/22 10:01:05;;;;;;;4.38;3.97;;;;;;;7.64;100.00;96268.97;5017589;28;20553;-65
2023/11/22 10:03:30;;;;;;;17.42;13.90;;;;;;;7.67;100.00;96267.88;5025730;28;20033;-65
2023/11/22 10:05:58;;;;;;;17.90;16.25;;;;;;;7.62;100.00;96270.84;5031597;28;20478;-65
2023/11/22 10:08:25;;;;;;;7.35;6.70;;;;;;;7.52;100.00;96272.44;5030803;28;20033;-65
2023/11/22 10:10:51;;;;;;;4.20;3.90;;;;;;;7.40;100.00;96266.28;5026167;28;20036;-65
2023/11/22 10:13:21;;;;;;;3.88;3.58;;;;;;;7.41;100.00;96276.69;5029456;28;20017;-65
2023/11/22 10:15:51;;;;;;;9.85;3.80;;;;;;;7.27;100.00;96275.00;5033002;28;20018;-64
2023/11/22 10:18:17;;;;;;;3.67;3.47;;;;;;;7.22;100.00;96279.72;5029277;28;20418;-65
2023/11/22 10:20:46;;;;;;;3.78;3.28;;;;;;;7.22;100.00;96273.66;5028613;28;20041;-65
2023/11/22 10:23:14;;;;;;;4.78;3.65;;;;;;;7.20;100.00;96275.56;5015839;28;20025;-63
2023/11/22 10:25:51;;;;;;;3.72;3.53;;;;;;;7.17;100.00;96303.59;5020916;28;20045;-64
2023/11/22 10:28:21;;;;;;;4.45;4.05;;;;;;;7.17;100.00;96300.97;5024328;28;20391;-64
2023/11/22 10:30:49;;;;;;;3.20;3.00;;;;;;;7.11;100.00;96306.66;5028309;28;20025;-64
2023/11/22 10:33:15;;;;;;;4.07;3.65;;;;;;;6.90;100.00;96302.88;5027692;28;20084;-64
2023/11/22 10:35:51;;;;;;;6.07;3.58;;;;;;;6.82;100.00;96299.00;5026460;28;20034;-64
2023/11/22 10:38:17;;;;;;;5.32;4.57;;;;;;;6.79;100.00;96299.22;5029628;28;20125;-64
2023/11/22 10:40:46;;;;;;;5.45;4.93;;;;;;;6.85;100.00;96303.19;5026307;28;20029;-64
2023/11/22 10:43:12;;;;;;;6.25;5.20;;;;;;;6.92;100.00;96301.00;5028282;28;20060;-64
2023/11/22 10:45:38;;;;;;;5.18;4.60;;;;;;;6.95;100.00;96298.16;5031744;28;20026;-64
2023/11/22 10:48:05;;;;;;;13.13;6.22;;;;;;;7.19;100.00;96297.44;5027752;28;20034;-64
2023/11/22 10:50:30;;;;;;;8.95;6.40;;;;;;;7.72;100.00;96311.19;5029547;28;20409;-64
2023/11/22 10:53:06;;;;;;;10.73;7.38;;;;;;;8.25;100.00;96289.03;5020967;28;20018;-64
2023/11/22 10:55:32;;;;;;;8.68;7.70;;;;;;;8.52;100.00;96274.88;5030845;28;20034;-64
2023/11/22 10:58:06;;;;;;;7.38;5.85;;;;;;;8.44;100.00;96248.31;5040154;28;20120;-64
2023/11/22 11:00:32;;;;;;;6.03;5.43;;;;;;;8.60;100.00;96234.91;5027290;28;20032;-64
2023/11/22 11:03:11;;;;;;;7.30;6.68;;;;;;;8.52;100.00;96218.91;5025394;28;20048;-64
2023/11/22 11:05:41;;;;;;;6.15;5.57;;;;;;;8.29;100.00;96232.81;5019214;28;20115;-64
2023/11/22 11:08:14;;;;;;;8.73;7.93;;;;;;;8.10;100.00;96249.03;5028949;28;20110;-65
2023/11/22 11:10:41;;;;;;;5.18;4.78;;;;;;;8.22;100.00;96238.63;5020637;28;20368;-64
2023/11/22 11:13:08;;;;;;;4.53;3.38;;;;;;;8.54;100.00;96211.75;5018088;28;20468;-63
2023/11/22 11:15:33;;;;;;;4.38;3.55;;;;;;;8.39;100.00;96206.69;5016963;28;20101;-63
2023/11/22 11:17:59;;;;;;;4.30;3.90;;;;;;;8.42;100.00;96195.13;5020425;28;20056;-63
2023/11/22 11:20:25;;;;;;;3.67;3.38;;;;;;;8.27;100.00;96191.88;5027486;28;20061;-64
2023/11/22 11:22:52;;;;;;;3.50;3.20;;;;;;;8.29;100.00;96190.81;5032534;28;20522;-64
2023/11/22 11:25:18;;;;;;;3.33;3.03;;;;;;;8.34;100.00;96187.84;5029285;28;20061;-66
2023/11/22 11:27:44;;;;;;;4.75;4.35;;;;;;;8.14;100.00;96191.97;5030889;28;20026;-65